sensor_id;sensor_type;location;lat;lon;timestamp;temperature;humidity
18741;DHT22;9499;52.472;13.448;2023-06-24T00:01:54;18.00;99.90
18741;DHT22;9499;52.472;13.448;2023-06-24T00:04:20;18.00;99.90
18741;DHT22;9499;52.472;13.448;2023-06-24T00:06:48;18.00;99.90
18741;DHT22;9499;52.472;13.448;2023-06-24T00:09:17;18.00;99.90
18741;DHT22;9499;52.472;13.448;2023-06-24T00:11:44;18.00;99.90
18741;DHT22;9499;52.472;13.448;2023-06-24T00:14:12;18.00;99.90
18741;DHT22;9499;52.472;13.448;2023-06-24T00:16:40;18.00;99.90
18741;DHT22;9499;52.472;13.448;2023-06-24T00:19:08;18.00;99.90
18741;DHT22;9499;52.472;13.448;2023-06-24T00:21:35;18.00;99.90
18741;DHT22;9499;52.472;13.448;2023-06-24T00:24:03;18.00;99.90
18741;DHT22;9499;52.472;13.448;2023-06-24T00:26:30;17.90;99.90
18741;DHT22;9499;52.472;13.448;2023-06-24T00:28:58;17.90;99.90
18741;DHT22;9499;52.472;13.448;2023-06-24T00:31:24;17.90;99.90
18741;DHT22;9499;52.472;13.448;2023-06-24T00:33:51;17.90;99.90
18741;DHT22;9499;52.472;13.448;2023-06-24T00:36:20;17.90;99.90
18741;DHT22;9499;52.472;13.448;2023-06-24T00:38:46;17.90;99.90
18741;DHT22;9499;52.472;13.448;2023-06-24T00:41:14;17.90;99.90
18741;DHT22;9499;52.472;13.448;2023-06-24T00:43:42;17.80;99.90
18741;DHT22;9499;52.472;13.448;2023-06-24T00:46:09;17.80;99.90
18741;DHT22;9499;52.472;13.448;2023-06-24T00:48:35;17.80;99.90
18741;DHT22;9499;52.472;13.448;2023-06-24T00:51:02;17.90;99.90
18741;DHT22;9499;52.472;13.448;2023-06-24T00:53:30;17.80;99.90
18741;DHT22;9499;52.472;13.448;2023-06-24T00:55:58;17.80;99.90
18741;DHT22;9499;52.472;13.448;2023-06-24T00:58:28;17.80;99.90
18741;DHT22;9499;52.472;13.448;2023-06-24T01:00:57;17.70;99.90
18741;DHT22;9499;52.472;13.448;2023-06-24T01:03:24;17.70;99.90
18741;DHT22;9499;52.472;13.448;2023-06-24T01:05:51;17.60;99.90
18741;DHT22;9499;52.472;13.448;2023-06-24T01:08:18;17.60;99.90
18741;DHT22;9499;52.472;13.448;2023-06-24T01:10:49;17.50;99.90
18741;DHT22;9499;52.472;13.448;2023-06-24T01:13:17;17.50;99.90
18741;DHT22;9499;52.472;13.448;2023-06-24T01:15:44;17.50;99.90
18741;DHT22;9499;52.472;13.448;2023-06-24T01:18:16;17.40;99.90
18741;DHT22;9499;52.472;13.448;2023-06-24T01:20:51;17.40;99.90
18741;DHT22;9499;52.472;13.448;2023-06-24T01:23:34;17.40;99.90
18741;DHT22;9499;52.472;13.448;2023-06-24T01:26:31;17.40;99.90
18741;DHT22;9499;52.472;13.448;2023-06-24T01:29:15;17.40;99.90
18741;DHT22;9499;52.472;13.448;2023-06-24T01:31:50;17.40;99.90
18741;DHT22;9499;52.472;13.448;2023-06-24T01:34:23;17.40;99.90
18741;DHT22;9499;52.472;13.448;2023-06-24T01:36:57;17.40;99.90
18741;DHT22;9499;52.472;13.448;2023-06-24T01:39:26;17.30;99.90
18741;DHT22;9499;52.472;13.448;2023-06-24T01:41:56;17.30;99.90
18741;DHT22;9499;52.472;13.448;2023-06-24T01:44:25;17.30;99.90
18741;DHT22;9499;52.472;13.448;2023-06-24T01:46:57;17.30;99.90
18741;DHT22;9499;52.472;13.448;2023-06-24T01:49:28;17.30;99.90
18741;DHT22;9499;52.472;13.448;2023-06-24T01:51:57;17.20;99.90
18741;DHT22;9499;52.472;13.448;2023-06-24T01:54:26;17.20;99.90
18741;DHT22;9499;52.472;13.448;2023-06-24T01:56:54;17.20;99.90
18741;DHT22;9499;52.472;13.448;2023-06-24T01:59:22;17.20;99.90
18741;DHT22;9499;52.472;13.448;2023-06-24T02:01:50;17.20;99.90
18741;DHT22;9499;52.472;13.448;2023-06-24T02:04:19;17.20;99.90
18741;DHT22;9499;52.472;13.448;2023-06-24T02:06:47;17.20;99.90
18741;DHT22;9499;52.472;13.448;2023-06-24T02:09:15;17.10;99.90
18741;DHT22;9499;52.472;13.448;2023-06-24T02:11:43;17.00;99.90
18741;DHT22;9499;52.472;13.448;2023-06-24T02:14:10;17.00;99.90
18741;DHT22;9499;52.472;13.448;2023-06-24T02:16:39;17.00;99.90
18741;DHT22;9499;52.472;13.448;2023-06-24T02:19:08;16.90;99.90
18741;DHT22;9499;52.472;13.448;2023-06-24T02:21:39;16.90;99.90
18741;DHT22;9499;52.472;13.448;2023-06-24T02:24:07;16.90;99.90
18741;DHT22;9499;52.472;13.448;2023-06-24T02:26:34;16.90;99.90
18741;DHT22;9499;52.472;13.448;2023-06-24T02:29:06;16.90;99.90
18741;DHT22;9499;52.472;13.448;2023-06-24T02:31:34;16.90;99.90
18741;DHT22;9499;52.472;13.448;2023-06-24T02:34:01;16.90;99.90
18741;DHT22;9499;52.472;13.448;2023-06-24T02:36:28;16.90;99.90
18741;DHT22;9499;52.472;13.448;2023-06-24T02:38:55;16.80;99.90
18741;DHT22;9499;52.472;13.448;2023-06-24T02:41:22;16.80;99.90
18741;DHT22;9499;52.472;13.448;2023-06-24T02:43:48;16.80;99.90
18741;DHT22;9499;52.472;13.448;2023-06-24T02:46:15;16.80;99.90
18741;DHT22;9499;52.472;13.448;2023-06-24T02:48:43;16.70;99.90
18741;DHT22;9499;52.472;13.448;2023-06-24T02:51:11;16.70;99.90
18741;DHT22;9499;52.472;13.448;2023-06-24T02:53:38;16.70;99.90
18741;DHT22;9499;52.472;13.448;2023-06-24T02:56:08;16.70;99.90
18741;DHT22;9499;52.472;13.448;2023-06-24T02:58:36;16.70;99.90
18741;DHT22;9499;52.472;13.448;2023-06-24T03:01:04;16.60;99.90
18741;DHT22;9499;52.472;13.448;2023-06-24T03:03:34;16.60;99.90
18741;DHT22;9499;52.472;13.448;2023-06-24T03:06:01;16.60;99.90
18741;DHT22;9499;52.472;13.448;2023-06-24T03:08:29;16.60;99.90
18741;DHT22;9499;52.472;13.448;2023-06-24T03:10:56;16.50;99.90
18741;DHT22;9499;52.472;13.448;2023-06-24T03:13:24;16.50;99.90
18741;DHT22;9499;52.472;13.448;2023-06-24T03:15:51;16.50;99.90
18741;DHT22;9499;52.472;13.448;2023-06-24T03:18:18;16.60;99.90
18741;DHT22;9499;52.472;13.448;2023-06-24T03:20:44;16.50;99.90
18741;DHT22;9499;52.472;13.448;2023-06-24T03:23:12;16.50;99.90
18741;DHT22;9499;52.472;13.448;2023-06-24T03:25:38;16.50;99.90
18741;DHT22;9499;52.472;13.448;2023-06-24T03:28:05;16.50;99.90
18741;DHT22;9499;52.472;13.448;2023-06-24T03:30:34;16.50;99.90
18741;DHT22;9499;52.472;13.448;2023-06-24T03:33:00;16.40;99.90
18741;DHT22;9499;52.472;13.448;2023-06-24T03:35:27;16.40;99.90
18741;DHT22;9499;52.472;13.448;2023-06-24T03:37:55;16.40;99.90
18741;DHT22;9499;52.472;13.448;2023-06-24T03:40:21;16.40;99.90
18741;DHT22;9499;52.472;13.448;2023-06-24T03:42:48;16.40;99.90
18741;DHT22;9499;52.472;13.448;2023-06-24T03:45:14;16.30;99.90
18741;DHT22;9499;52.472;13.448;2023-06-24T03:47:42;16.40;99.90
18741;DHT22;9499;52.472;13.448;2023-06-24T03:50:09;16.30;99.90
18741;DHT22;9499;52.472;13.448;2023-06-24T03:52:36;16.30;99.90
18741;DHT22;9499;52.472;13.448;2023-06-24T03:55:03;16.20;99.90
18741;DHT22;9499;52.472;13.448;2023-06-24T03:57:30;16.30;99.90
18741;DHT22;9499;52.472;13.448;2023-06-24T03:59:57;16.30;99.90
18741;DHT22;9499;52.472;13.448;2023-06-24T04:02:23;16.30;99.90
18741;DHT22;9499;52.472;13.448;2023-06-24T04:04:53;16.30;99.90
18741;DHT22;9499;52.472;13.448;2023-06-24T04:07:21;16.30;99.90
18741;DHT22;9499;52.472;13.448;2023-06-24T04:09:54;16.30;99.90
18741;DHT22;9499;52.472;13.448;2023-06-24T04:12:21;16.20;99.90
18741;DHT22;9499;52.472;13.448;2023-06-24T04:14:47;16.30;99.90
18741;DHT22;9499;52.472;13.448;2023-06-24T04:17:14;16.20;99.90
18741;DHT22;9499;52.472;13.448;2023-06-24T04:19:40;16.30;99.90
18741;DHT22;9499;52.472;13.448;2023-06-24T04:22:09;16.20;99.90
18741;DHT22;9499;52.472;13.448;2023-06-24T04:24:35;16.30;99.90
18741;DHT22;9499;52.472;13.448;2023-06-24T04:27:02;16.20;99.90
18741;DHT22;9499;52.472;13.448;2023-06-24T04:29:29;16.20;99.90
18741;DHT22;9499;52.472;13.448;2023-06-24T04:31:55;16.20;99.90
18741;DHT22;9499;52.472;13.448;2023-06-24T04:34:22;16.20;99.90
18741;DHT22;9499;52.472;13.448;2023-06-24T04:36:48;16.30;99.90
18741;DHT22;9499;52.472;13.448;2023-06-24T04:39:16;16.20;99.90
18741;DHT22;9499;52.472;13.448;2023-06-24T04:41:43;16.20;99.90
18741;DHT22;9499;52.472;13.448;2023-06-24T04:44:09;16.20;99.90
18741;DHT22;9499;52.472;13.448;2023-06-24T04:46:36;16.20;99.90
18741;DHT22;9499;52.472;13.448;2023-06-24T04:49:02;16.20;99.90
18741;DHT22;9499;52.472;13.448;2023-06-24T04:51:29;16.20;99.90
18741;DHT22;9499;52.472;13.448;2023-06-24T04:53:55;16.20;99.90
18741;DHT22;9499;52.472;13.448;2023-06-24T04:56:23;16.20;99.90
18741;DHT22;9499;52.472;13.448;2023-06-24T04:58:51;16.20;99.90
18741;DHT22;9499;52.472;13.448;2023-06-24T05:01:17;16.20;99.90
18741;DHT22;9499;52.472;13.448;2023-06-24T05:03:44;16.20;99.90
18741;DHT22;9499;52.472;13.448;2023-06-24T05:06:10;16.20;99.90
18741;DHT22;9499;52.472;13.448;2023-06-24T05:08:37;16.20;99.90
18741;DHT22;9499;52.472;13.448;2023-06-24T05:11:03;16.30;99.90
18741;DHT22;9499;52.472;13.448;2023-06-24T05:13:32;16.40;99.90
18741;DHT22;9499;52.472;13.448;2023-06-24T05:15:58;16.30;99.90
18741;DHT22;9499;52.472;13.448;2023-06-24T05:18:25;16.30;99.90
18741;DHT22;9499;52.472;13.448;2023-06-24T05:20:51;16.20;99.90
18741;DHT22;9499;52.472;13.448;2023-06-24T05:23:18;16.30;99.90
18741;DHT22;9499;52.472;13.448;2023-06-24T05:25:44;16.30;99.90
18741;DHT22;9499;52.472;13.448;2023-06-24T05:28:11;16.40;99.90
18741;DHT22;9499;52.472;13.448;2023-06-24T05:30:40;16.40;99.90
18741;DHT22;9499;52.472;13.448;2023-06-24T05:33:07;16.40;99.90
18741;DHT22;9499;52.472;13.448;2023-06-24T05:35:33;16.50;99.90
18741;DHT22;9499;52.472;13.448;2023-06-24T05:38:02;16.50;99.90
18741;DHT22;9499;52.472;13.448;2023-06-24T05:40:29;16.50;99.90
18741;DHT22;9499;52.472;13.448;2023-06-24T05:42:55;16.60;99.90
18741;DHT22;9499;52.472;13.448;2023-06-24T05:45:22;16.60;99.90
18741;DHT22;9499;52.472;13.448;2023-06-24T05:47:49;16.60;99.90
18741;DHT22;9499;52.472;13.448;2023-06-24T05:50:16;16.60;99.90
18741;DHT22;9499;52.472;13.448;2023-06-24T05:52:42;16.60;99.90
18741;DHT22;9499;52.472;13.448;2023-06-24T05:55:09;16.60;99.90
18741;DHT22;9499;52.472;13.448;2023-06-24T05:57:36;16.60;99.90
18741;DHT22;9499;52.472;13.448;2023-06-24T06:00:03;16.70;99.90
18741;DHT22;9499;52.472;13.448;2023-06-24T06:02:30;16.80;99.90
18741;DHT22;9499;52.472;13.448;2023-06-24T06:04:58;16.80;99.90
18741;DHT22;9499;52.472;13.448;2023-06-24T06:07:26;16.80;99.90
18741;DHT22;9499;52.472;13.448;2023-06-24T06:09:52;16.90;99.90
18741;DHT22;9499;52.472;13.448;2023-06-24T06:12:19;16.80;99.90
18741;DHT22;9499;52.472;13.448;2023-06-24T06:14:45;16.90;99.90
18741;DHT22;9499;52.472;13.448;2023-06-24T06:17:13;16.90;99.90
18741;DHT22;9499;52.472;13.448;2023-06-24T06:19:40;16.90;99.90
18741;DHT22;9499;52.472;13.448;2023-06-24T06:22:08;17.00;99.90
18741;DHT22;9499;52.472;13.448;2023-06-24T06:24:34;17.10;99.90
18741;DHT22;9499;52.472;13.448;2023-06-24T06:27:01;17.20;99.90
18741;DHT22;9499;52.472;13.448;2023-06-24T06:29:27;17.30;99.90
18741;DHT22;9499;52.472;13.448;2023-06-24T06:31:54;17.30;99.90
18741;DHT22;9499;52.472;13.448;2023-06-24T06:34:22;17.30;99.90
18741;DHT22;9499;52.472;13.448;2023-06-24T06:36:48;17.40;99.90
18741;DHT22;9499;52.472;13.448;2023-06-24T06:39:16;17.50;99.90
18741;DHT22;9499;52.472;13.448;2023-06-24T06:41:43;17.50;99.90
18741;DHT22;9499;52.472;13.448;2023-06-24T06:44:09;17.60;99.90
18741;DHT22;9499;52.472;13.448;2023-06-24T06:46:36;17.60;99.90
18741;DHT22;9499;52.472;13.448;2023-06-24T06:49:02;17.70;99.90
18741;DHT22;9499;52.472;13.448;2023-06-24T06:51:29;17.80;99.90
18741;DHT22;9499;52.472;13.448;2023-06-24T06:53:55;17.90;99.90
18741;DHT22;9499;52.472;13.448;2023-06-24T06:56:24;18.00;99.90
18741;DHT22;9499;52.472;13.448;2023-06-24T06:58:51;17.90;99.90
18741;DHT22;9499;52.472;13.448;2023-06-24T07:01:18;17.90;99.90
18741;DHT22;9499;52.472;13.448;2023-06-24T07:03:45;18.00;99.90
18741;DHT22;9499;52.472;13.448;2023-06-24T07:06:11;18.00;99.90
18741;DHT22;9499;52.472;13.448;2023-06-24T07:08:38;18.10;99.90
18741;DHT22;9499;52.472;13.448;2023-06-24T07:11:04;18.10;99.90
18741;DHT22;9499;52.472;13.448;2023-06-24T07:13:32;18.10;99.90
18741;DHT22;9499;52.472;13.448;2023-06-24T07:15:59;18.10;99.90
18741;DHT22;9499;52.472;13.448;2023-06-24T07:18:25;18.10;99.90
18741;DHT22;9499;52.472;13.448;2023-06-24T07:20:55;18.20;99.90
18741;DHT22;9499;52.472;13.448;2023-06-24T07:23:22;18.20;99.90
18741;DHT22;9499;52.472;13.448;2023-06-24T07:25:49;18.20;99.90
18741;DHT22;9499;52.472;13.448;2023-06-24T07:28:16;18.30;99.90
18741;DHT22;9499;52.472;13.448;2023-06-24T07:30:44;18.40;99.90
18741;DHT22;9499;52.472;13.448;2023-06-24T07:33:10;18.40;99.90
18741;DHT22;9499;52.472;13.448;2023-06-24T07:35:37;18.40;99.90
18741;DHT22;9499;52.472;13.448;2023-06-24T07:38:03;18.40;1.00
18741;DHT22;9499;52.472;13.448;2023-06-24T07:40:30;18.40;1.00
18741;DHT22;9499;52.472;13.448;2023-06-24T07:42:56;18.50;1.00
18741;DHT22;9499;52.472;13.448;2023-06-24T07:45:23;18.70;1.00
18741;DHT22;9499;52.472;13.448;2023-06-24T07:47:52;18.70;99.90
18741;DHT22;9499;52.472;13.448;2023-06-24T07:50:18;18.80;99.90
18741;DHT22;9499;52.472;13.448;2023-06-24T07:52:45;18.70;1.00
18741;DHT22;9499;52.472;13.448;2023-06-24T07:55:11;18.70;99.90
18741;DHT22;9499;52.472;13.448;2023-06-24T07:57:38;18.70;46.60
18741;DHT22;9499;52.472;13.448;2023-06-24T08:00:07;18.80;1.00
18741;DHT22;9499;52.472;13.448;2023-06-24T08:02:35;18.90;1.00
18741;DHT22;9499;52.472;13.448;2023-06-24T08:05:03;19.00;46.50
18741;DHT22;9499;52.472;13.448;2023-06-24T08:07:30;19.10;99.90
18741;DHT22;9499;52.472;13.448;2023-06-24T08:09:56;19.10;99.90
18741;DHT22;9499;52.472;13.448;2023-06-24T08:12:23;19.20;99.90
18741;DHT22;9499;52.472;13.448;2023-06-24T08:14:50;19.30;1.00
18741;DHT22;9499;52.472;13.448;2023-06-24T08:17:16;19.30;78.60
18741;DHT22;9499;52.472;13.448;2023-06-24T08:19:43;19.40;1.00
18741;DHT22;9499;52.472;13.448;2023-06-24T08:22:11;19.40;1.00
18741;DHT22;9499;52.472;13.448;2023-06-24T08:24:37;19.50;1.00
18741;DHT22;9499;52.472;13.448;2023-06-24T08:27:04;19.40;1.00
18741;DHT22;9499;52.472;13.448;2023-06-24T08:29:31;19.40;99.90
18741;DHT22;9499;52.472;13.448;2023-06-24T08:31:57;19.40;1.00
18741;DHT22;9499;52.472;13.448;2023-06-24T08:34:24;19.40;99.90
18741;DHT22;9499;52.472;13.448;2023-06-24T08:36:50;19.50;98.30
18741;DHT22;9499;52.472;13.448;2023-06-24T08:39:18;19.60;1.00
18741;DHT22;9499;52.472;13.448;2023-06-24T08:41:45;19.60;1.00
18741;DHT22;9499;52.472;13.448;2023-06-24T08:44:11;19.70;1.00
18741;DHT22;9499;52.472;13.448;2023-06-24T08:46:38;19.80;1.00
18741;DHT22;9499;52.472;13.448;2023-06-24T08:49:12;19.80;1.00
18741;DHT22;9499;52.472;13.448;2023-06-24T08:51:41;19.80;1.00
18741;DHT22;9499;52.472;13.448;2023-06-24T08:54:13;19.80;99.90
18741;DHT22;9499;52.472;13.448;2023-06-24T08:56:42;19.80;1.00
18741;DHT22;9499;52.472;13.448;2023-06-24T08:59:09;19.80;1.00
18741;DHT22;9499;52.472;13.448;2023-06-24T09:01:35;19.80;99.90
18741;DHT22;9499;52.472;13.448;2023-06-24T09:04:02;19.80;1.00
18741;DHT22;9499;52.472;13.448;2023-06-24T09:06:29;19.90;99.90
18741;DHT22;9499;52.472;13.448;2023-06-24T09:08:57;20.00;99.90
18741;DHT22;9499;52.472;13.448;2023-06-24T09:11:24;20.00;1.00
18741;DHT22;9499;52.472;13.448;2023-06-24T09:13:56;20.00;99.90
18741;DHT22;9499;52.472;13.448;2023-06-24T09:16:22;20.10;99.90
18741;DHT22;9499;52.472;13.448;2023-06-24T09:18:50;20.10;1.00
18741;DHT22;9499;52.472;13.448;2023-06-24T09:21:23;20.20;99.90
18741;DHT22;9499;52.472;13.448;2023-06-24T09:23:52;20.20;1.00
18741;DHT22;9499;52.472;13.448;2023-06-24T09:26:19;20.10;17.50
18741;DHT22;9499;52.472;13.448;2023-06-24T09:28:47;20.10;99.90
18741;DHT22;9499;52.472;13.448;2023-06-24T09:31:16;20.10;99.90
18741;DHT22;9499;52.472;13.448;2023-06-24T09:33:43;20.30;1.00
18741;DHT22;9499;52.472;13.448;2023-06-24T09:36:11;20.30;1.00
18741;DHT22;9499;52.472;13.448;2023-06-24T09:38:40;20.10;1.00
18741;DHT22;9499;52.472;13.448;2023-06-24T09:41:08;20.20;99.90
18741;DHT22;9499;52.472;13.448;2023-06-24T09:43:35;20.20;3.00
18741;DHT22;9499;52.472;13.448;2023-06-24T09:46:05;20.20;99.90
18741;DHT22;9499;52.472;13.448;2023-06-24T09:48:34;20.20;99.90
18741;DHT22;9499;52.472;13.448;2023-06-24T09:51:02;20.30;1.00
18741;DHT22;9499;52.472;13.448;2023-06-24T09:53:30;20.40;99.90
18741;DHT22;9499;52.472;13.448;2023-06-24T09:55:57;20.50;1.00
18741;DHT22;9499;52.472;13.448;2023-06-24T09:58:25;20.50;99.90
18741;DHT22;9499;52.472;13.448;2023-06-24T10:00:54;20.60;1.00
18741;DHT22;9499;52.472;13.448;2023-06-24T10:03:21;20.70;99.90
18741;DHT22;9499;52.472;13.448;2023-06-24T10:05:50;20.80;99.90
18741;DHT22;9499;52.472;13.448;2023-06-24T10:08:16;20.80;99.90
18741;DHT22;9499;52.472;13.448;2023-06-24T10:10:43;20.90;1.00
18741;DHT22;9499;52.472;13.448;2023-06-24T10:13:10;21.00;99.90
18741;DHT22;9499;52.472;13.448;2023-06-24T10:15:37;21.20;99.90
18741;DHT22;9499;52.472;13.448;2023-06-24T10:18:33;21.40;1.00
18741;DHT22;9499;52.472;13.448;2023-06-24T10:21:01;21.90;1.00
18741;DHT22;9499;52.472;13.448;2023-06-24T10:23:39;22.30;99.90
18741;DHT22;9499;52.472;13.448;2023-06-24T10:26:08;22.40;1.00
18741;DHT22;9499;52.472;13.448;2023-06-24T10:29:12;22.30;1.00
18741;DHT22;9499;52.472;13.448;2023-06-24T10:31:53;22.50;1.00
18741;DHT22;9499;52.472;13.448;2023-06-24T10:34:34;22.90;99.90
18741;DHT22;9499;52.472;13.448;2023-06-24T10:37:03;23.00;96.40
18741;DHT22;9499;52.472;13.448;2023-06-24T10:39:44;23.10;99.90
18741;DHT22;9499;52.472;13.448;2023-06-24T10:42:31;23.30;99.90
18741;DHT22;9499;52.472;13.448;2023-06-24T10:44:59;23.30;80.80
18741;DHT22;9499;52.472;13.448;2023-06-24T10:47:27;23.50;63.90
18741;DHT22;9499;52.472;13.448;2023-06-24T10:49:54;23.50;1.00
18741;DHT22;9499;52.472;13.448;2023-06-24T10:52:23;23.50;1.00
18741;DHT22;9499;52.472;13.448;2023-06-24T10:54:51;23.50;1.00
18741;DHT22;9499;52.472;13.448;2023-06-24T10:57:22;23.80;1.00
18741;DHT22;9499;52.472;13.448;2023-06-24T10:59:51;24.00;1.00
18741;DHT22;9499;52.472;13.448;2023-06-24T11:02:19;24.00;1.00
18741;DHT22;9499;52.472;13.448;2023-06-24T11:04:47;24.00;1.00
18741;DHT22;9499;52.472;13.448;2023-06-24T11:07:14;24.10;1.00
18741;DHT22;9499;52.472;13.448;2023-06-24T11:09:48;24.20;1.00
18741;DHT22;9499;52.472;13.448;2023-06-24T11:12:15;24.20;1.00
18741;DHT22;9499;52.472;13.448;2023-06-24T11:14:42;24.10;1.00
18741;DHT22;9499;52.472;13.448;2023-06-24T11:17:09;24.10;1.00
18741;DHT22;9499;52.472;13.448;2023-06-24T11:19:36;24.20;1.00
18741;DHT22;9499;52.472;13.448;2023-06-24T11:22:05;24.30;8.10
18741;DHT22;9499;52.472;13.448;2023-06-24T11:24:34;24.60;1.00
18741;DHT22;9499;52.472;13.448;2023-06-24T11:27:04;24.90;1.00
18741;DHT22;9499;52.472;13.448;2023-06-24T11:29:32;25.10;1.00
18741;DHT22;9499;52.472;13.448;2023-06-24T11:31:58;25.20;99.90
18741;DHT22;9499;52.472;13.448;2023-06-24T11:34:25;25.10;99.90
18741;DHT22;9499;52.472;13.448;2023-06-24T11:36:52;24.80;99.90
18741;DHT22;9499;52.472;13.448;2023-06-24T11:39:23;24.60;1.00
18741;DHT22;9499;52.472;13.448;2023-06-24T11:41:50;24.70;1.00
18741;DHT22;9499;52.472;13.448;2023-06-24T11:44:19;25.00;1.00
18741;DHT22;9499;52.472;13.448;2023-06-24T11:46:47;25.00;99.90
18741;DHT22;9499;52.472;13.448;2023-06-24T11:49:13;25.00;99.90
18741;DHT22;9499;52.472;13.448;2023-06-24T11:51:46;25.10;99.90
18741;DHT22;9499;52.472;13.448;2023-06-24T11:54:15;25.20;99.90
18741;DHT22;9499;52.472;13.448;2023-06-24T11:56:43;25.30;99.90
18741;DHT22;9499;52.472;13.448;2023-06-24T11:59:16;25.30;99.90
18741;DHT22;9499;52.472;13.448;2023-06-24T12:01:45;25.40;99.90
18741;DHT22;9499;52.472;13.448;2023-06-24T12:04:12;25.50;99.90
18741;DHT22;9499;52.472;13.448;2023-06-24T12:06:39;25.50;99.90
18741;DHT22;9499;52.472;13.448;2023-06-24T12:09:06;25.60;99.90
18741;DHT22;9499;52.472;13.448;2023-06-24T12:11:32;25.70;99.90
18741;DHT22;9499;52.472;13.448;2023-06-24T12:13:59;25.80;99.90
18741;DHT22;9499;52.472;13.448;2023-06-24T12:16:26;25.90;99.90
18741;DHT22;9499;52.472;13.448;2023-06-24T12:18:54;26.00;99.90
18741;DHT22;9499;52.472;13.448;2023-06-24T12:21:21;26.00;96.40
18741;DHT22;9499;52.472;13.448;2023-06-24T12:23:47;25.90;84.50
18741;DHT22;9499;52.472;13.448;2023-06-24T12:26:14;26.00;99.90
18741;DHT22;9499;52.472;13.448;2023-06-24T12:28:41;26.20;92.70
18741;DHT22;9499;52.472;13.448;2023-06-24T12:31:08;26.30;54.00
18741;DHT22;9499;52.472;13.448;2023-06-24T12:33:34;26.10;56.50
18741;DHT22;9499;52.472;13.448;2023-06-24T12:36:03;26.10;91.80
18741;DHT22;9499;52.472;13.448;2023-06-24T12:38:29;26.30;73.90
18741;DHT22;9499;52.472;13.448;2023-06-24T12:40:56;26.50;76.60
18741;DHT22;9499;52.472;13.448;2023-06-24T12:43:23;26.50;2.60
18741;DHT22;9499;52.472;13.448;2023-06-24T12:45:50;26.50;1.00
18741;DHT22;9499;52.472;13.448;2023-06-24T12:48:17;26.50;1.00
18741;DHT22;9499;52.472;13.448;2023-06-24T12:50:43;26.70;1.00
18741;DHT22;9499;52.472;13.448;2023-06-24T12:53:11;26.70;1.00
18741;DHT22;9499;52.472;13.448;2023-06-24T12:55:39;26.70;1.00
18741;DHT22;9499;52.472;13.448;2023-06-24T12:58:07;26.70;1.00
18741;DHT22;9499;52.472;13.448;2023-06-24T13:00:34;26.40;1.00
18741;DHT22;9499;52.472;13.448;2023-06-24T13:03:01;26.60;1.00
18741;DHT22;9499;52.472;13.448;2023-06-24T13:05:27;27.00;39.60
18741;DHT22;9499;52.472;13.448;2023-06-24T13:07:54;27.20;1.00
18741;DHT22;9499;52.472;13.448;2023-06-24T13:10:22;27.00;1.00
18741;DHT22;9499;52.472;13.448;2023-06-24T13:12:48;26.80;1.00
18741;DHT22;9499;52.472;13.448;2023-06-24T13:15:16;26.70;1.00
18741;DHT22;9499;52.472;13.448;2023-06-24T13:17:42;27.00;1.00
18741;DHT22;9499;52.472;13.448;2023-06-24T13:20:10;27.00;1.00
18741;DHT22;9499;52.472;13.448;2023-06-24T13:22:36;27.00;1.00
18741;DHT22;9499;52.472;13.448;2023-06-24T13:25:04;27.10;1.00
18741;DHT22;9499;52.472;13.448;2023-06-24T13:27:32;27.20;1.00
18741;DHT22;9499;52.472;13.448;2023-06-24T13:29:59;27.30;1.00
18741;DHT22;9499;52.472;13.448;2023-06-24T13:32:26;27.20;1.00
18741;DHT22;9499;52.472;13.448;2023-06-24T13:34:52;27.20;1.00
18741;DHT22;9499;52.472;13.448;2023-06-24T13:37:19;27.00;1.00
18741;DHT22;9499;52.472;13.448;2023-06-24T13:39:46;27.00;1.00
18741;DHT22;9499;52.472;13.448;2023-06-24T13:42:13;27.10;1.00
18741;DHT22;9499;52.472;13.448;2023-06-24T13:44:43;27.00;1.00
18741;DHT22;9499;52.472;13.448;2023-06-24T13:47:10;27.00;1.00
18741;DHT22;9499;52.472;13.448;2023-06-24T13:49:36;27.10;1.00
18741;DHT22;9499;52.472;13.448;2023-06-24T13:52:04;27.10;1.00
18741;DHT22;9499;52.472;13.448;2023-06-24T13:54:30;27.40;1.00
18741;DHT22;9499;52.472;13.448;2023-06-24T13:57:00;27.80;1.00
18741;DHT22;9499;52.472;13.448;2023-06-24T13:59:27;27.90;1.00
18741;DHT22;9499;52.472;13.448;2023-06-24T14:01:54;27.70;1.00
18741;DHT22;9499;52.472;13.448;2023-06-24T14:04:21;27.70;1.00
18741;DHT22;9499;52.472;13.448;2023-06-24T14:06:47;27.80;1.00
18741;DHT22;9499;52.472;13.448;2023-06-24T14:09:14;27.70;1.00
18741;DHT22;9499;52.472;13.448;2023-06-24T14:11:40;27.50;1.00
18741;DHT22;9499;52.472;13.448;2023-06-24T14:14:07;27.40;1.00
18741;DHT22;9499;52.472;13.448;2023-06-24T14:16:33;27.70;1.00
18741;DHT22;9499;52.472;13.448;2023-06-24T14:19:01;27.90;1.00
18741;DHT22;9499;52.472;13.448;2023-06-24T14:21:28;28.10;1.00
18741;DHT22;9499;52.472;13.448;2023-06-24T14:23:56;28.10;1.00
18741;DHT22;9499;52.472;13.448;2023-06-24T14:26:23;28.00;1.00
18741;DHT22;9499;52.472;13.448;2023-06-24T14:28:49;28.20;1.00
18741;DHT22;9499;52.472;13.448;2023-06-24T14:31:16;28.50;1.00
18741;DHT22;9499;52.472;13.448;2023-06-24T14:33:42;28.60;1.00
18741;DHT22;9499;52.472;13.448;2023-06-24T14:36:10;28.80;1.00
18741;DHT22;9499;52.472;13.448;2023-06-24T14:38:37;29.00;1.00
18741;DHT22;9499;52.472;13.448;2023-06-24T14:41:03;29.10;1.00
18741;DHT22;9499;52.472;13.448;2023-06-24T14:43:30;29.30;1.00
18741;DHT22;9499;52.472;13.448;2023-06-24T14:45:56;29.40;1.00
18741;DHT22;9499;52.472;13.448;2023-06-24T14:48:23;29.40;1.00
18741;DHT22;9499;52.472;13.448;2023-06-24T14:50:50;29.40;1.00
18741;DHT22;9499;52.472;13.448;2023-06-24T14:53:18;29.40;1.00
18741;DHT22;9499;52.472;13.448;2023-06-24T14:55:45;29.10;1.00
18741;DHT22;9499;52.472;13.448;2023-06-24T14:58:11;29.10;1.00
18741;DHT22;9499;52.472;13.448;2023-06-24T15:00:38;29.10;1.00
18741;DHT22;9499;52.472;13.448;2023-06-24T15:03:05;29.40;1.00
18741;DHT22;9499;52.472;13.448;2023-06-24T15:05:32;29.20;1.00
18741;DHT22;9499;52.472;13.448;2023-06-24T15:07:59;29.10;1.00
18741;DHT22;9499;52.472;13.448;2023-06-24T15:10:27;29.00;1.00
18741;DHT22;9499;52.472;13.448;2023-06-24T15:12:53;28.90;1.00
18741;DHT22;9499;52.472;13.448;2023-06-24T15:15:20;29.10;1.00
18741;DHT22;9499;52.472;13.448;2023-06-24T15:17:46;29.10;1.00
18741;DHT22;9499;52.472;13.448;2023-06-24T15:20:13;28.80;1.00
18741;DHT22;9499;52.472;13.448;2023-06-24T15:22:40;28.70;1.00
18741;DHT22;9499;52.472;13.448;2023-06-24T15:25:07;28.80;1.00
18741;DHT22;9499;52.472;13.448;2023-06-24T15:27:35;29.10;1.00
18741;DHT22;9499;52.472;13.448;2023-06-24T15:30:02;29.10;1.00
18741;DHT22;9499;52.472;13.448;2023-06-24T15:32:29;29.10;1.00
18741;DHT22;9499;52.472;13.448;2023-06-24T15:34:55;29.20;1.00
18741;DHT22;9499;52.472;13.448;2023-06-24T15:37:22;29.40;1.00
18741;DHT22;9499;52.472;13.448;2023-06-24T15:39:49;29.50;1.00